Terminal Aerodrome Forecast
Issued by NWS

Home | Current Version | Previous Version | Text Only | Print | Product List | Glossary Off
Versions: 1 2 3 4 5 6 7 8 9 10 11 12 13 14 15 16

000
FTUS45 KGGW 181036 AAB
TAFGDV
TAF AMD
KGDV 181036Z 1811/1906 32012KT P6SM BKN200
     FM181200 31010KT P6SM FEW250
     FM181600 29012KT P6SM SCT150
     FM190100 19007KT P6SM SCT150=

USA.gov is the U.S. government's official web portal to all federal, state and local government web resources and services.